createdAt,value
2022-11-05T00:01:45.658Z,86.63
2022-11-05T00:05:06.800Z,86.78
2022-11-05T00:08:27.752Z,86.76
2022-11-05T00:11:49.012Z,87.16
2022-11-05T00:15:09.834Z,87.42
2022-11-05T00:18:12.369Z,87.51
2022-11-05T00:21:32.986Z,87.49
2022-11-05T00:24:54.121Z,87.46
2022-11-05T00:28:01.485Z,87.36
2022-11-05T00:31:06.697Z,86.72
2022-11-05T00:34:08.903Z,86.49
2022-11-05T00:37:11.382Z,86.46
2022-11-05T00:40:15.158Z,86.19
2022-11-05T00:43:36.226Z,86.21
2022-11-05T00:46:38.344Z,86.24
2022-11-05T00:49:40.935Z,86.29
2022-11-05T00:52:59.749Z,86.18
2022-11-05T00:56:10.584Z,86.27
2022-11-05T00:59:12.815Z,86.17
2022-11-05T01:02:15.348Z,86.16
2022-11-05T01:05:17.732Z,85.89
2022-11-05T01:08:22.418Z,86.06
2022-11-05T01:11:33.683Z,86.03
2022-11-05T01:14:36.318Z,86.42
2022-11-05T01:17:38.598Z,86.26
2022-11-05T01:20:43.580Z,86.42
2022-11-05T01:23:46.346Z,86.29
2022-11-05T01:26:48.923Z,86.29
2022-11-05T01:29:51.174Z,86.55
2022-11-05T01:32:53.749Z,86.79
2022-11-05T01:35:55.999Z,86.80
2022-11-05T01:38:58.696Z,86.69
2022-11-05T01:42:01.002Z,86.78
2022-11-05T01:45:19.559Z,86.93
2022-11-05T01:48:25.404Z,87.21
2022-11-05T01:51:28.816Z,87.53
2022-11-05T01:54:32.866Z,87.60
2022-11-05T01:57:35.783Z,87.53
2022-11-05T02:00:40.043Z,87.68
2022-11-05T02:03:44.553Z,87.87
2022-11-05T02:06:47.384Z,87.94
2022-11-05T02:10:10.665Z,88.00
2022-11-05T02:13:13.361Z,87.89
2022-11-05T02:16:41.432Z,87.94
2022-11-05T02:20:09.690Z,88.02
2022-11-05T02:23:12.184Z,88.02
2022-11-05T02:26:58.638Z,87.60
2022-11-05T02:30:38.515Z,87.92
2022-11-05T02:33:48.132Z,88.06
2022-11-05T02:36:56.300Z,88.04
2022-11-05T02:40:15.029Z,87.90
2022-11-05T02:43:23.509Z,87.59
2022-11-05T02:46:52.261Z,87.77
2022-11-05T02:50:03.456Z,87.98
2022-11-05T02:53:19.759Z,88.03
2022-11-05T02:56:32.273Z,87.91
2022-11-05T02:59:34.746Z,88.29
2022-11-05T03:02:39.396Z,88.08
2022-11-05T03:06:20.301Z,88.13
2022-11-05T03:10:00.285Z,88.03
2022-11-05T03:13:12.908Z,87.84
2022-11-05T03:16:21.945Z,88.22
2022-11-05T03:19:50.314Z,88.10
2022-11-05T03:23:04.380Z,88.17
2022-11-05T03:26:21.724Z,88.18
2022-11-05T03:29:33.443Z,88.23
2022-11-05T03:32:40.313Z,88.41
2022-11-05T03:35:47.861Z,88.39
2022-11-05T03:38:54.344Z,88.61
2022-11-05T03:41:57.849Z,88.67
2022-11-05T03:45:05.532Z,88.37
2022-11-05T03:48:11.812Z,88.27
2022-11-05T03:51:14.210Z,88.31
2022-11-05T03:54:16.719Z,88.19
2022-11-05T03:57:30.006Z,87.74
2022-11-05T04:00:33.041Z,88.17
2022-11-05T04:03:36.720Z,88.05
2022-11-05T04:06:57.921Z,88.22
2022-11-05T04:10:32.756Z,88.44
2022-11-05T04:13:35.229Z,88.25
2022-11-05T04:16:56.365Z,87.76
2022-11-05T04:20:17.407Z,87.89
2022-11-05T04:23:38.232Z,87.42
2022-11-05T04:26:46.271Z,87.28
2022-11-05T04:30:07.448Z,87.08
2022-11-05T04:33:15.731Z,87.36
2022-11-05T04:36:19.626Z,87.06
2022-11-05T04:39:21.887Z,86.88
2022-11-05T04:42:24.442Z,86.95
2022-11-05T04:45:30.178Z,86.71
2022-11-05T04:48:32.699Z,86.41
2022-11-05T04:51:34.964Z,86.70
2022-11-05T04:54:37.457Z,86.56
2022-11-05T04:57:39.874Z,86.61
2022-11-05T05:00:42.519Z,86.60
2022-11-05T05:03:47.159Z,86.62
2022-11-05T05:06:49.799Z,86.73
2022-11-05T05:09:52.675Z,86.52
2022-11-05T05:12:55.451Z,86.54
2022-11-05T05:15:57.765Z,86.61
2022-11-05T05:19:00.408Z,86.45
2022-11-05T05:22:02.740Z,86.01
2022-11-05T05:25:05.406Z,86.06
2022-11-05T05:28:07.584Z,85.81
2022-11-05T05:31:10.247Z,85.85
2022-11-05T05:34:14.188Z,85.92
2022-11-05T05:37:16.849Z,85.78
2022-11-05T05:40:19.065Z,85.56
2022-11-05T05:43:21.742Z,85.63
2022-11-05T05:46:23.963Z,85.36
2022-11-05T05:49:26.483Z,85.39
2022-11-05T05:52:28.691Z,85.47
2022-11-05T05:55:31.195Z,85.39
2022-11-05T05:58:38.789Z,85.39
2022-11-05T06:01:41.811Z,85.35
2022-11-05T06:04:44.396Z,85.35
2022-11-05T06:07:46.687Z,85.34
2022-11-05T06:10:52.749Z,85.11
2022-11-05T06:13:55.414Z,85.05
2022-11-05T06:16:57.894Z,84.93
2022-11-05T06:20:00.307Z,84.85
2022-11-05T06:23:02.826Z,85.11
2022-11-05T06:26:08.137Z,84.59
2022-11-05T06:29:10.929Z,84.62
2022-11-05T06:32:13.202Z,84.80
2022-11-05T06:35:15.862Z,84.90
2022-11-05T06:38:18.105Z,84.79
2022-11-05T06:41:20.743Z,84.59
2022-11-05T06:44:23.009Z,84.30
2022-11-05T06:47:25.731Z,84.65
2022-11-05T06:50:28.800Z,84.90
2022-11-05T06:53:31.984Z,84.98
2022-11-05T06:56:34.192Z,84.79
2022-11-05T06:59:40.703Z,84.50
2022-11-05T07:02:42.979Z,84.82
2022-11-05T07:05:49.339Z,84.81
2022-11-05T07:08:51.594Z,84.89
2022-11-05T07:11:55.071Z,84.13
2022-11-05T07:14:57.609Z,84.11
2022-11-05T07:18:01.151Z,84.26
2022-11-05T07:21:04.257Z,84.30
2022-11-05T07:24:07.442Z,84.28
2022-11-05T07:27:09.665Z,84.10
2022-11-05T07:30:12.692Z,83.97
2022-11-05T07:33:15.189Z,83.71
2022-11-05T07:36:17.815Z,83.54
2022-11-05T07:39:20.238Z,83.26
2022-11-05T07:42:22.784Z,82.95
2022-11-05T07:45:26.520Z,82.50
2022-11-05T07:48:28.890Z,82.34
2022-11-05T07:51:31.018Z,82.09
2022-11-05T07:54:33.539Z,81.05
2022-11-05T07:57:47.438Z,80.79
2022-11-05T08:00:50.200Z,80.74
2022-11-05T08:03:52.861Z,80.23
2022-11-05T08:06:55.073Z,80.49
2022-11-05T08:09:57.555Z,80.19
2022-11-05T08:13:00.133Z,79.96
2022-11-05T08:16:04.028Z,79.21
2022-11-05T08:19:06.453Z,79.42
2022-11-05T08:22:08.993Z,79.29
2022-11-05T08:25:12.714Z,79.30
2022-11-05T08:28:15.159Z,79.37
2022-11-05T08:31:18.189Z,78.75
2022-11-05T08:34:20.729Z,78.37
2022-11-05T08:37:23.174Z,78.34
2022-11-05T08:40:26.472Z,77.75
2022-11-05T08:43:28.704Z,77.59
2022-11-05T08:46:31.263Z,77.29
2022-11-05T08:49:33.579Z,76.54
2022-11-05T08:52:36.194Z,76.19
2022-11-05T08:55:47.496Z,75.99
2022-11-05T08:58:50.101Z,75.11
2022-11-05T09:01:53.121Z,74.91
2022-11-05T09:04:57.158Z,74.35
2022-11-05T09:08:01.582Z,73.71
2022-11-05T09:11:04.359Z,73.52
2022-11-05T09:14:06.611Z,73.94
2022-11-05T09:17:20.594Z,73.32
2022-11-05T09:20:23.247Z,73.18
2022-11-05T09:23:25.899Z,73.26
2022-11-05T09:26:28.223Z,73.42
2022-11-05T09:29:30.819Z,73.40
2022-11-05T09:32:33.231Z,73.36
2022-11-05T09:35:40.101Z,73.35
2022-11-05T09:38:42.296Z,73.02
2022-11-05T09:41:46.984Z,72.61
2022-11-05T09:44:53.762Z,72.66
2022-11-05T09:48:01.347Z,72.02
2022-11-05T09:51:05.734Z,71.72
2022-11-05T09:54:12.169Z,70.92
2022-11-05T09:57:20.572Z,69.37
2022-11-05T10:00:23.082Z,68.03
2022-11-05T10:03:28.885Z,67.19
2022-11-05T10:06:31.619Z,67.28
2022-11-05T10:09:47.905Z,67.03
2022-11-05T10:13:15.959Z,66.50
2022-11-05T10:16:32.466Z,65.81
2022-11-05T10:19:54.634Z,64.62
2022-11-05T10:23:01.849Z,64.59
2022-11-05T10:26:09.303Z,64.00
2022-11-05T10:29:15.975Z,63.10
2022-11-05T10:32:36.062Z,63.12
2022-11-05T10:35:48.707Z,63.08
2022-11-05T10:38:51.429Z,63.68
2022-11-05T10:42:15.726Z,63.76
2022-11-05T10:45:35.277Z,63.75
2022-11-05T10:48:59.810Z,63.75
2022-11-05T10:52:21.984Z,62.98
2022-11-05T10:55:29.507Z,63.44
2022-11-05T10:58:35.277Z,63.31
2022-11-05T11:01:37.873Z,63.17
2022-11-05T11:04:40.605Z,64.12
2022-11-05T11:07:43.645Z,63.74
2022-11-05T11:10:51.866Z,63.84
2022-11-05T11:13:57.114Z,63.30
2022-11-05T11:17:27.074Z,63.10
2022-11-05T11:20:33.237Z,62.61
2022-11-05T11:23:40.269Z,62.85
2022-11-05T11:26:42.837Z,62.59
2022-11-05T11:29:51.230Z,62.82
2022-11-05T11:32:59.655Z,62.76
2022-11-05T11:36:02.537Z,62.43
2022-11-05T11:39:06.732Z,61.75
2022-11-05T11:42:19.844Z,61.42
2022-11-05T11:45:51.867Z,60.69
2022-11-05T11:48:54.349Z,61.21
2022-11-05T11:52:03.535Z,61.07
2022-11-05T11:55:11.505Z,60.59
2022-11-05T11:58:14.079Z,61.27
2022-11-05T12:01:28.440Z,61.07
2022-11-05T12:04:56.040Z,61.07
2022-11-05T12:08:06.727Z,61.53
2022-11-05T12:11:21.100Z,61.64
2022-11-05T12:14:46.194Z,61.99
2022-11-05T12:18:19.712Z,62.05
2022-11-05T12:21:51.949Z,62.31
2022-11-05T12:25:14.587Z,62.38
2022-11-05T12:29:04.788Z,62.44
2022-11-05T12:32:09.197Z,62.64
2022-11-05T12:36:00.294Z,63.33
2022-11-05T12:39:08.466Z,63.32
2022-11-05T12:42:32.027Z,63.66
2022-11-05T12:45:47.353Z,63.72
2022-11-05T12:49:24.196Z,63.78
2022-11-05T12:52:45.336Z,64.23
2022-11-05T12:55:49.701Z,64.52
2022-11-05T12:59:00.524Z,64.93
2022-11-05T13:02:22.389Z,64.72
2022-11-05T13:06:09.342Z,65.24
2022-11-05T13:09:14.831Z,65.41
2022-11-05T13:12:20.741Z,65.59
2022-11-05T13:15:52.115Z,65.79
2022-11-05T13:19:34.842Z,66.38
2022-11-05T13:22:44.538Z,66.57
2022-11-05T13:25:53.467Z,66.64
2022-11-05T13:29:12.866Z,67.32
2022-11-05T13:32:36.196Z,67.93
2022-11-05T13:35:45.246Z,67.84
2022-11-05T13:39:00.957Z,67.90
2022-11-05T13:42:30.593Z,68.34
2022-11-05T13:45:39.125Z,68.35
2022-11-05T13:48:47.132Z,68.82
2022-11-05T13:51:56.881Z,68.74
2022-11-05T13:55:26.211Z,69.12
2022-11-05T13:58:50.551Z,68.89
2022-11-05T14:01:59.386Z,68.67
2022-11-05T14:05:03.146Z,69.24
2022-11-05T14:08:18.813Z,69.19
2022-11-05T14:11:23.469Z,69.66
2022-11-05T14:14:29.237Z,70.39
2022-11-05T14:17:52.105Z,69.68
2022-11-05T14:21:00.366Z,70.13
2022-11-05T14:24:21.228Z,70.04
2022-11-05T14:27:29.425Z,70.16
2022-11-05T14:30:44.981Z,70.32
2022-11-05T14:34:12.385Z,70.57
2022-11-05T14:37:23.832Z,70.42
2022-11-05T14:40:29.073Z,70.31
2022-11-05T14:43:33.887Z,70.03
2022-11-05T14:46:45.696Z,69.97
2022-11-05T14:49:55.386Z,70.14
2022-11-05T14:53:02.706Z,71.03
2022-11-05T14:56:05.355Z,70.25
2022-11-05T14:59:28.292Z,70.39
2022-11-05T15:02:38.647Z,70.68
2022-11-05T15:05:51.342Z,70.48
2022-11-05T15:09:07.245Z,70.64
2022-11-05T15:12:34.352Z,71.67
2022-11-05T15:15:44.166Z,71.01
2022-11-05T15:18:47.288Z,71.72
2022-11-05T15:21:51.307Z,71.26
2022-11-05T15:24:54.536Z,71.27
2022-11-05T15:28:03.226Z,71.47
2022-11-05T15:31:22.544Z,71.67
2022-11-05T15:34:31.812Z,72.72
2022-11-05T15:37:34.031Z,72.17
2022-11-05T15:40:36.541Z,72.53
2022-11-05T15:43:48.117Z,73.56
2022-11-05T15:47:15.475Z,73.56
2022-11-05T15:50:17.862Z,73.50
2022-11-05T15:57:27.372Z,73.96
2022-11-05T16:00:33.155Z,73.60
2022-11-05T16:03:39.381Z,73.50
2022-11-05T16:06:44.491Z,73.33
2022-11-05T16:09:59.387Z,73.12
2022-11-05T16:13:32.627Z,73.08
2022-11-05T16:16:35.278Z,73.72
2022-11-05T16:19:41.485Z,73.39
2022-11-05T16:22:45.324Z,73.60
2022-11-05T16:25:47.968Z,73.89
2022-11-05T16:28:51.621Z,74.18
2022-11-05T16:31:55.614Z,74.44
2022-11-05T16:35:05.723Z,74.32
2022-11-05T16:38:11.774Z,74.79
2022-11-05T16:41:16.461Z,74.88
2022-11-05T16:44:18.729Z,75.12
2022-11-05T16:47:22.417Z,75.34
2022-11-05T16:50:32.159Z,75.71
2022-11-05T16:53:34.656Z,76.30
2022-11-05T16:56:37.094Z,76.34
2022-11-05T16:59:39.680Z,76.51
2022-11-05T17:02:42.275Z,77.22
2022-11-05T17:05:44.983Z,77.29
2022-11-05T17:08:48.386Z,77.71
2022-11-05T17:11:50.995Z,78.05
2022-11-05T17:14:53.339Z,78.25
2022-11-05T17:17:56.770Z,78.74
2022-11-05T17:20:59.065Z,78.97
2022-11-05T17:24:01.697Z,79.71
2022-11-05T17:27:03.914Z,79.81
2022-11-05T17:30:07.304Z,80.16
2022-11-05T17:33:13.139Z,80.27
2022-11-05T17:36:16.532Z,80.57
2022-11-05T17:39:20.009Z,81.42
2022-11-05T17:42:22.615Z,81.75
2022-11-05T17:45:24.908Z,82.10
2022-11-05T17:48:27.457Z,82.00
2022-11-05T17:51:29.817Z,82.10
2022-11-05T17:54:32.787Z,82.49
2022-11-05T17:57:34.998Z,82.89
2022-11-05T18:00:39.419Z,82.80
2022-11-05T18:03:41.960Z,83.10
2022-11-05T18:06:44.239Z,82.96
2022-11-05T18:09:47.858Z,83.49
2022-11-05T18:12:50.990Z,83.65
2022-11-05T18:15:54.315Z,83.90
2022-11-05T18:18:57.104Z,84.00
2022-11-05T18:21:59.637Z,84.38
2022-11-05T18:25:01.934Z,84.52
2022-11-05T18:28:04.562Z,84.71
2022-11-05T18:31:18.349Z,85.09
2022-11-05T18:34:21.198Z,85.33
2022-11-05T18:37:23.461Z,85.64
2022-11-05T18:40:26.035Z,85.68
2022-11-05T18:43:28.961Z,85.57
2022-11-05T18:49:55.530Z,86.36
2022-11-05T18:52:58.117Z,86.09
2022-11-05T18:56:00.387Z,86.62
2022-11-05T18:59:34.566Z,86.91
2022-11-05T19:02:25.876Z,87.02
2022-11-05T19:05:30.347Z,86.79
2022-11-05T19:08:33.367Z,87.25
2022-11-05T19:11:36.695Z,87.52
2022-11-05T19:14:39.128Z,87.84
2022-11-05T19:17:41.652Z,87.84
2022-11-05T19:20:44.178Z,88.12
2022-11-05T19:23:46.759Z,88.44
2022-11-05T19:26:49.057Z,88.30
2022-11-05T19:29:52.199Z,88.34
2022-11-05T19:32:54.438Z,88.49
2022-11-05T19:35:57.616Z,88.59
2022-11-05T19:39:02.197Z,88.42
2022-11-05T19:42:05.113Z,88.40
2022-11-05T19:45:23.467Z,88.71
2022-11-05T19:48:31.466Z,88.52
2022-11-05T19:51:34.377Z,89.10
2022-11-05T19:54:37.312Z,89.28
2022-11-05T19:57:39.610Z,89.41
2022-11-05T20:00:42.216Z,89.29
2022-11-05T20:03:45.090Z,89.23
2022-11-05T20:06:47.395Z,89.38
2022-11-05T20:09:50.131Z,89.32
2022-11-05T20:12:52.489Z,89.67
2022-11-05T20:15:55.542Z,89.65
2022-11-05T20:18:57.998Z,89.71
2022-11-05T20:22:00.824Z,90.03
2022-11-05T20:25:03.223Z,89.93
2022-11-05T20:28:05.864Z,90.09
2022-11-05T20:31:10.215Z,90.06
2022-11-05T20:34:13.113Z,90.24
2022-11-05T20:37:15.327Z,90.42
2022-11-05T20:40:17.856Z,90.37
2022-11-05T20:43:20.345Z,90.23
2022-11-05T20:46:23.378Z,89.87
2022-11-05T20:49:26.123Z,90.03
2022-11-05T20:52:28.735Z,90.19
2022-11-05T20:55:30.969Z,90.18
2022-11-05T20:58:33.558Z,90.32
2022-11-05T21:01:35.978Z,90.34
2022-11-05T21:04:42.641Z,90.34
2022-11-05T21:07:45.018Z,90.04
2022-11-05T21:10:51.226Z,89.84
2022-11-05T21:13:54.792Z,90.10
2022-11-05T21:16:57.423Z,90.35
2022-11-05T21:19:59.663Z,90.15
2022-11-05T21:23:02.165Z,90.30
2022-11-05T21:26:06.129Z,90.16
2022-11-05T21:29:08.682Z,90.14
2022-11-05T21:32:11.692Z,90.28
2022-11-05T21:35:14.374Z,90.01
2022-11-05T21:38:17.952Z,90.30
2022-11-05T21:41:20.555Z,90.31
2022-11-05T21:44:22.845Z,90.51
2022-11-05T21:47:28.052Z,90.60
2022-11-05T21:50:48.825Z,90.64
2022-11-05T21:54:13.170Z,90.49
2022-11-05T21:57:36.914Z,90.35
2022-11-05T22:00:39.502Z,90.49
2022-11-05T22:03:42.085Z,90.44
2022-11-05T22:06:44.800Z,90.30
2022-11-05T22:09:48.102Z,90.49
2022-11-05T22:12:50.424Z,90.14
2022-11-05T22:15:56.387Z,90.33
2022-11-05T22:18:59.165Z,90.31
2022-11-05T22:22:01.824Z,90.45
2022-11-05T22:25:04.799Z,90.50
2022-11-05T22:28:07.329Z,90.54
2022-11-05T22:31:17.417Z,90.42
2022-11-05T22:34:20.696Z,90.56
2022-11-05T22:37:22.950Z,90.36
2022-11-05T22:40:25.474Z,90.61
2022-11-05T22:43:27.739Z,90.62
2022-11-05T22:46:30.943Z,90.81
2022-11-05T22:49:33.404Z,90.75
2022-11-05T22:52:36.129Z,90.44
2022-11-05T22:55:41.592Z,90.57
2022-11-05T22:58:48.857Z,90.68
2022-11-05T23:01:51.190Z,90.70
2022-11-05T23:04:53.968Z,90.48
2022-11-05T23:08:15.450Z,90.52
2022-11-05T23:11:38.395Z,90.64
2022-11-05T23:14:40.635Z,90.73
2022-11-05T23:18:01.947Z,90.75
2022-11-05T23:21:23.327Z,90.91
2022-11-05T23:24:25.855Z,90.89
2022-11-05T23:27:33.859Z,90.81
2022-11-05T23:31:01.104Z,90.82
2022-11-05T23:34:03.420Z,90.96
2022-11-05T23:37:25.463Z,90.80
2022-11-05T23:40:30.715Z,90.74
2022-11-05T23:43:51.634Z,90.80
2022-11-05T23:47:12.581Z,90.91
2022-11-05T23:50:15.204Z,91.01
2022-11-05T23:53:17.781Z,90.93
2022-11-05T23:56:20.416Z,90.80
2022-11-05T23:59:22.764Z,90.83
